createdAt,value
2022-11-12T00:00:46.791Z,19.92
2022-11-12T00:03:13.169Z,16.52
2022-11-12T00:05:39.552Z,18.10
2022-11-12T00:08:05.978Z,18.27
2022-11-12T00:10:32.375Z,16.92
2022-11-12T00:12:59.338Z,17.75
2022-11-12T00:15:26.349Z,16.35
2022-11-12T00:17:53.195Z,15.70
2022-11-12T00:20:19.598Z,14.82
2022-11-12T00:22:45.999Z,16.20
2022-11-12T00:25:12.385Z,19.27
2022-11-12T00:27:38.791Z,17.65
2022-11-12T00:30:05.825Z,15.68
2022-11-12T00:32:32.238Z,21.08
2022-11-12T00:35:02.418Z,17.40
2022-11-12T00:37:29.347Z,18.08
2022-11-12T00:39:55.708Z,20.52
2022-11-12T00:42:22.073Z,18.15
2022-11-12T00:44:49.823Z,16.35
2022-11-12T00:47:16.635Z,17.08
2022-11-12T00:49:43.163Z,16.45
2022-11-12T00:52:09.565Z,13.65
2022-11-12T00:54:35.926Z,18.63
2022-11-12T00:57:02.298Z,15.95
2022-11-12T00:59:28.756Z,17.30
2022-11-12T01:01:55.157Z,16.00
2022-11-12T01:04:21.522Z,15.45
2022-11-12T01:06:47.912Z,13.10
2022-11-12T01:09:14.313Z,13.95
2022-11-12T01:11:41.498Z,15.98
2022-11-12T01:14:09.131Z,16.70
2022-11-12T01:16:37.874Z,17.90
2022-11-12T01:19:06.214Z,14.73
2022-11-12T01:21:33.705Z,13.32
2022-11-12T01:24:01.338Z,16.60
2022-11-12T01:26:31.088Z,15.80
2022-11-12T01:28:57.675Z,14.00
2022-11-12T01:31:30.189Z,13.68
2022-11-12T01:33:58.566Z,18.70
2022-11-12T01:36:26.584Z,15.05
2022-11-12T01:38:53.964Z,11.48
2022-11-12T01:41:25.676Z,12.82
2022-11-12T01:44:12.492Z,13.35
2022-11-12T01:47:06.155Z,14.70
2022-11-12T01:49:41.935Z,12.55
2022-11-12T01:52:34.766Z,16.08
2022-11-12T01:55:08.274Z,15.52
2022-11-12T01:57:39.549Z,15.68
2022-11-12T02:00:10.062Z,15.13
2022-11-12T02:02:36.954Z,14.60
2022-11-12T02:05:06.736Z,14.23
2022-11-12T02:07:34.450Z,15.93
2022-11-12T02:10:02.273Z,14.75
2022-11-12T02:12:47.307Z,14.07
2022-11-12T02:15:13.979Z,19.45
2022-11-12T02:17:40.343Z,17.58
2022-11-12T02:20:10.694Z,20.92
2022-11-12T02:22:37.082Z,15.45
2022-11-12T02:25:03.815Z,15.88
2022-11-12T02:27:30.256Z,17.30
2022-11-12T02:29:56.721Z,20.25
2022-11-12T02:32:23.091Z,15.52
2022-11-12T02:34:49.455Z,13.57
2022-11-12T02:37:15.814Z,15.18
2022-11-12T02:39:42.185Z,15.32
2022-11-12T02:42:08.554Z,14.18
2022-11-12T02:44:34.991Z,14.38
2022-11-12T02:47:01.392Z,13.80
2022-11-12T02:49:27.797Z,14.57
2022-11-12T02:51:54.217Z,14.43
2022-11-12T02:54:20.589Z,15.43
2022-11-12T02:56:46.976Z,11.35
2022-11-12T02:59:13.355Z,12.85
2022-11-12T03:01:39.717Z,13.82
2022-11-12T03:04:06.112Z,14.10
2022-11-12T03:06:32.473Z,13.90
2022-11-12T03:08:58.846Z,13.70
2022-11-12T03:11:25.244Z,16.85
2022-11-12T03:13:51.616Z,13.52
2022-11-12T03:16:18.003Z,15.43
2022-11-12T03:18:44.439Z,19.13
2022-11-12T03:21:10.816Z,19.65
2022-11-12T03:23:37.183Z,15.25
2022-11-12T03:26:04.402Z,17.35
2022-11-12T03:28:30.976Z,14.40
2022-11-12T03:30:59.257Z,14.55
2022-11-12T03:33:25.764Z,15.10
2022-11-12T03:35:52.303Z,15.75
2022-11-12T03:38:18.740Z,17.90
2022-11-12T03:40:45.141Z,17.13
2022-11-12T03:43:11.527Z,16.48
2022-11-12T03:45:37.914Z,18.08
2022-11-12T03:48:04.467Z,20.63
2022-11-12T03:50:30.959Z,19.15
2022-11-12T03:52:58.980Z,23.05
2022-11-12T03:55:27.807Z,17.60
2022-11-12T03:57:54.609Z,19.13
2022-11-12T04:00:22.325Z,18.80
2022-11-12T04:02:48.891Z,16.40
2022-11-12T04:05:34.472Z,16.58
2022-11-12T04:08:31.039Z,14.90
2022-11-12T04:10:57.409Z,13.35
2022-11-12T04:13:29.688Z,19.65
2022-11-12T04:19:00.214Z,16.05
2022-11-12T04:21:49.519Z,17.80
2022-11-12T04:24:38.466Z,23.48
2022-11-12T04:27:04.886Z,19.38
2022-11-12T04:29:50.420Z,25.33
2022-11-12T04:32:17.087Z,27.35
2022-11-12T04:34:43.556Z,29.23
2022-11-12T04:37:10.003Z,29.60
2022-11-12T04:39:36.372Z,30.27
2022-11-12T04:42:21.764Z,29.02
2022-11-12T04:44:57.168Z,32.08
2022-11-12T04:47:23.633Z,46.33
2022-11-12T04:49:49.999Z,32.72
2022-11-12T04:52:16.540Z,29.42
2022-11-12T04:54:42.899Z,28.08
2022-11-12T04:57:09.308Z,25.98
2022-11-12T04:59:35.673Z,32.25
2022-11-12T05:02:02.147Z,29.08
2022-11-12T05:04:29.235Z,60.50
2022-11-12T05:06:56.912Z,33.75
2022-11-12T05:09:25.712Z,42.95
2022-11-12T05:11:52.779Z,33.78
2022-11-12T05:14:19.189Z,33.58
2022-11-12T05:16:45.762Z,32.17
2022-11-12T05:19:12.179Z,24.00
2022-11-12T05:21:57.026Z,22.33
2022-11-12T05:24:40.928Z,21.67
2022-11-12T05:27:14.106Z,19.25
2022-11-12T05:29:40.755Z,18.20
2022-11-12T05:32:08.016Z,19.77
2022-11-12T05:34:34.724Z,26.02
2022-11-12T05:37:03.106Z,26.77
2022-11-12T05:39:29.883Z,37.42
2022-11-12T05:42:12.454Z,36.05
2022-11-12T05:44:39.575Z,38.30
2022-11-12T05:47:05.922Z,36.00
2022-11-12T05:49:32.396Z,35.65
2022-11-12T05:51:58.817Z,56.30
2022-11-12T05:54:25.222Z,46.85
2022-11-12T05:56:53.317Z,30.25
2022-11-12T05:59:19.749Z,29.05
2022-11-12T06:01:46.191Z,21.15
2022-11-12T06:04:16.542Z,18.80
2022-11-12T06:06:43.649Z,25.60
2022-11-12T06:09:10.491Z,20.40
2022-11-12T06:11:37.548Z,17.42
2022-11-12T06:14:04.460Z,16.45
2022-11-12T06:16:31.368Z,16.33
2022-11-12T06:18:58.350Z,22.08
2022-11-12T06:21:24.802Z,21.60
2022-11-12T06:24:00.479Z,18.40
2022-11-12T06:26:28.566Z,19.23
2022-11-12T06:28:55.516Z,17.10
2022-11-12T06:31:22.399Z,21.35
2022-11-12T06:33:49.032Z,22.13
2022-11-12T06:36:17.532Z,30.42
2022-11-12T06:38:44.111Z,20.42
2022-11-12T06:41:11.977Z,20.80
2022-11-12T06:43:38.954Z,21.17
2022-11-12T06:46:16.502Z,24.15
2022-11-12T06:48:42.999Z,18.73
2022-11-12T06:51:17.626Z,19.65
2022-11-12T06:53:44.175Z,20.63
2022-11-12T06:56:10.678Z,23.02
2022-11-12T06:58:37.212Z,27.98
2022-11-12T07:01:10.946Z,31.52
2022-11-12T07:03:39.230Z,26.25
2022-11-12T07:06:07.851Z,23.88
2022-11-12T07:08:34.716Z,24.75
2022-11-12T07:11:01.183Z,22.15
2022-11-12T07:13:30.343Z,30.58
2022-11-12T07:15:58.526Z,24.63
2022-11-12T07:18:25.544Z,28.48
2022-11-12T07:20:52.199Z,23.17
2022-11-12T07:23:18.571Z,19.33
2022-11-12T07:25:44.937Z,19.77
2022-11-12T07:28:11.294Z,22.42
2022-11-12T07:30:37.789Z,21.38
2022-11-12T07:33:04.215Z,22.77
2022-11-12T07:35:30.791Z,21.73
2022-11-12T07:37:59.697Z,22.08
2022-11-12T07:40:26.211Z,20.77
2022-11-12T07:42:52.602Z,22.90
2022-11-12T07:45:19.016Z,19.70
2022-11-12T07:47:45.388Z,21.77
2022-11-12T07:50:11.749Z,22.80
2022-11-12T07:52:38.147Z,25.23
2022-11-12T07:55:04.974Z,21.25
2022-11-12T07:57:33.130Z,20.80
2022-11-12T07:59:59.495Z,25.08
2022-11-12T08:02:25.874Z,19.98
2022-11-12T08:04:52.574Z,19.35
2022-11-12T08:07:19.060Z,22.77
2022-11-12T08:09:45.500Z,19.27
2022-11-12T08:12:11.873Z,18.17
2022-11-12T08:14:38.220Z,22.63
2022-11-12T08:17:04.600Z,22.75
2022-11-12T08:19:30.948Z,25.15
2022-11-12T08:21:57.316Z,25.10
2022-11-12T08:24:23.685Z,27.35
2022-11-12T08:26:50.147Z,23.05
2022-11-12T08:29:16.500Z,25.55
2022-11-12T08:31:42.881Z,25.77
2022-11-12T08:34:12.535Z,24.17
2022-11-12T08:36:40.209Z,22.13
2022-11-12T08:39:07.328Z,21.98
2022-11-12T08:41:33.983Z,18.90
2022-11-12T08:44:05.548Z,17.73
2022-11-12T08:46:34.641Z,21.33
2022-11-12T08:49:01.038Z,15.38
2022-11-12T08:51:27.405Z,13.60
2022-11-12T08:53:53.768Z,18.42
2022-11-12T08:56:20.117Z,14.77
2022-11-12T08:58:46.489Z,12.65
2022-11-12T09:01:12.997Z,12.63
2022-11-12T09:03:39.454Z,13.82
2022-11-12T09:06:06.096Z,12.15
2022-11-12T09:08:34.381Z,16.95
2022-11-12T09:11:00.757Z,14.68
2022-11-12T09:13:27.156Z,14.23
2022-11-12T09:15:53.557Z,12.95
2022-11-12T09:18:20.024Z,20.77
2022-11-12T09:20:46.681Z,17.00
2022-11-12T09:23:15.142Z,11.70
2022-11-12T09:25:41.970Z,14.30
2022-11-12T09:28:10.033Z,10.63
2022-11-12T09:30:38.036Z,12.80
2022-11-12T09:33:04.791Z,14.85
2022-11-12T09:35:31.295Z,13.38
2022-11-12T09:37:59.314Z,13.10
2022-11-12T09:40:39.241Z,11.98
2022-11-12T09:43:11.552Z,12.35
2022-11-12T09:45:37.922Z,17.33
2022-11-12T09:48:09.123Z,11.65
2022-11-12T09:50:43.172Z,11.32
2022-11-12T09:53:18.598Z,11.80
2022-11-12T09:55:49.514Z,13.00
2022-11-12T09:58:17.530Z,16.40
2022-11-12T10:00:58.885Z,15.63
2022-11-12T10:03:37.112Z,13.18
2022-11-12T10:06:19.151Z,13.00
2022-11-12T10:08:58.524Z,12.68
2022-11-12T10:12:02.841Z,12.38
2022-11-12T10:14:52.795Z,13.95
2022-11-12T10:17:39.229Z,12.57
2022-11-12T10:20:22.906Z,21.52
2022-11-12T10:23:13.945Z,28.98
2022-11-12T10:25:43.669Z,24.70
2022-11-12T10:28:43.805Z,25.42
2022-11-12T10:31:18.720Z,23.15
2022-11-12T10:33:45.317Z,25.48
2022-11-12T10:36:23.526Z,25.73
2022-11-12T10:38:52.985Z,31.08
2022-11-12T10:41:28.720Z,28.55
2022-11-12T10:43:59.186Z,23.60
2022-11-12T10:46:31.012Z,23.75
2022-11-12T10:49:02.619Z,22.00
2022-11-12T10:51:34.564Z,39.47
2022-11-12T10:54:34.842Z,27.35
2022-11-12T10:57:25.462Z,36.22
2022-11-12T11:00:12.013Z,34.05
2022-11-12T11:02:46.956Z,28.58
2022-11-12T11:05:27.426Z,28.70
2022-11-12T11:07:53.803Z,27.20
2022-11-12T11:10:29.092Z,25.77
2022-11-12T11:13:21.727Z,24.27
2022-11-12T11:18:24.189Z,19.00
2022-11-12T11:21:04.966Z,21.23
2022-11-12T11:23:42.587Z,20.17
2022-11-12T11:26:38.666Z,18.55
2022-11-12T11:29:35.873Z,15.77
2022-11-12T11:32:20.996Z,16.73
2022-11-12T11:35:27.480Z,15.38
2022-11-12T11:38:11.138Z,13.65
2022-11-12T11:40:46.612Z,14.15
2022-11-12T11:43:36.192Z,16.60
2022-11-12T11:46:16.671Z,17.10
2022-11-12T11:49:17.531Z,13.85
2022-11-12T11:51:55.009Z,11.48
2022-11-12T11:55:04.492Z,10.25
2022-11-12T11:57:43.932Z,13.32
2022-11-12T12:00:13.317Z,15.05
2022-11-12T12:03:05.983Z,10.77
2022-11-12T12:05:46.124Z,10.75
2022-11-12T12:08:29.748Z,11.20
2022-11-12T12:11:15.854Z,13.20
2022-11-12T12:13:45.135Z,12.30
2022-11-12T12:16:22.261Z,11.85
2022-11-12T12:19:20.756Z,11.77
2022-11-12T12:21:50.378Z,11.27
2022-11-12T12:24:30.337Z,12.10
2022-11-12T12:27:12.332Z,8.30
2022-11-12T12:29:45.496Z,8.02
2022-11-12T12:32:27.134Z,11.10
2022-11-12T12:35:21.966Z,9.52
2022-11-12T12:37:55.560Z,10.85
2022-11-12T12:40:26.428Z,10.52
2022-11-12T12:42:57.245Z,7.82
2022-11-12T12:45:36.391Z,11.82
2022-11-12T12:48:04.940Z,13.60
2022-11-12T12:50:31.603Z,8.68
2022-11-12T12:53:04.181Z,6.38
2022-11-12T12:55:52.315Z,7.40
2022-11-12T12:58:32.002Z,7.60
2022-11-12T13:01:21.846Z,5.20
2022-11-12T13:03:51.249Z,8.23
2022-11-12T13:06:23.822Z,6.68
2022-11-12T13:09:02.655Z,7.47
2022-11-12T13:12:00.030Z,5.28
2022-11-12T13:14:35.209Z,6.70
2022-11-12T13:17:08.831Z,5.57
2022-11-12T13:20:09.362Z,8.20
2022-11-12T13:22:38.703Z,5.13
2022-11-12T13:25:06.567Z,6.38
2022-11-12T13:27:53.188Z,5.88
2022-11-12T13:30:22.221Z,4.97
2022-11-12T13:32:48.755Z,6.82
2022-11-12T13:35:21.753Z,5.43
2022-11-12T13:37:56.764Z,7.40
2022-11-12T13:40:23.111Z,10.80
2022-11-12T13:42:50.127Z,9.52
2022-11-12T13:45:22.723Z,8.27
2022-11-12T13:47:49.191Z,6.45
2022-11-12T13:50:23.334Z,7.18
2022-11-12T13:52:50.113Z,5.75
2022-11-12T13:55:21.256Z,7.60
2022-11-12T13:57:55.518Z,7.97
2022-11-12T14:00:25.868Z,5.28
2022-11-12T14:02:55.783Z,8.38
2022-11-12T14:05:25.453Z,9.05
2022-11-12T14:08:10.329Z,8.32
2022-11-12T14:10:49.818Z,7.32
2022-11-12T14:13:34.643Z,9.23
2022-11-12T14:16:19.167Z,8.88
2022-11-12T14:19:04.354Z,7.57
2022-11-12T14:21:30.764Z,10.45
2022-11-12T14:23:57.240Z,9.38
2022-11-12T14:26:41.039Z,6.68
2022-11-12T14:29:14.081Z,11.18
2022-11-12T14:31:40.466Z,11.38
2022-11-12T14:34:27.044Z,7.90
2022-11-12T14:36:55.879Z,7.55
2022-11-12T14:39:24.212Z,8.15
2022-11-12T14:41:50.880Z,8.65
2022-11-12T14:44:26.650Z,7.90
2022-11-12T14:46:55.070Z,10.48
2022-11-12T14:49:45.201Z,8.07
2022-11-12T14:52:23.149Z,9.15
2022-11-12T14:54:55.237Z,9.15
2022-11-12T14:57:27.622Z,9.32
2022-11-12T14:59:54.583Z,7.47
2022-11-12T15:02:42.294Z,8.23
2022-11-12T15:07:59.268Z,6.88
2022-11-12T15:10:37.435Z,7.85
2022-11-12T15:13:07.048Z,9.48
2022-11-12T15:15:34.546Z,11.48
2022-11-12T15:18:03.535Z,7.82
2022-11-12T15:20:29.938Z,9.25
2022-11-12T15:22:56.602Z,11.73
2022-11-12T15:25:30.964Z,6.25
2022-11-12T15:28:13.075Z,8.35
2022-11-12T15:30:39.533Z,8.57
2022-11-12T15:33:11.998Z,7.30
2022-11-12T15:35:43.846Z,5.68
2022-11-12T15:38:14.320Z,8.48
2022-11-12T15:40:45.609Z,9.20
2022-11-12T15:43:14.422Z,10.43
2022-11-12T15:45:40.852Z,9.63
2022-11-12T15:48:11.425Z,10.95
2022-11-12T15:50:39.040Z,6.72
2022-11-12T15:53:05.793Z,7.50
2022-11-12T15:55:33.322Z,7.63
2022-11-12T15:57:59.827Z,7.40
2022-11-12T16:00:31.716Z,7.50
2022-11-12T16:03:02.298Z,7.75
2022-11-12T16:05:28.647Z,10.38
2022-11-12T16:07:55.010Z,7.50
2022-11-12T16:10:21.378Z,8.07
2022-11-12T16:12:48.033Z,7.72
2022-11-12T16:15:15.890Z,35.67
2022-11-12T16:17:42.355Z,35.72
2022-11-12T16:20:16.808Z,72.80
2022-11-12T16:22:43.225Z,29.58
2022-11-12T16:25:10.136Z,15.52
2022-11-12T16:27:38.204Z,20.88
2022-11-12T16:30:07.259Z,10.55
2022-11-12T16:32:33.616Z,12.18
2022-11-12T16:35:01.271Z,14.90
2022-11-12T16:37:27.980Z,10.93
2022-11-12T16:39:54.339Z,11.05
2022-11-12T16:42:20.698Z,10.15
2022-11-12T16:44:47.045Z,8.73
2022-11-12T16:47:13.512Z,10.80
2022-11-12T16:49:40.510Z,8.70
2022-11-12T16:52:09.094Z,9.25
2022-11-12T16:54:35.452Z,8.82
2022-11-12T16:57:01.837Z,8.27
2022-11-12T16:59:28.305Z,10.23
2022-11-12T17:01:54.687Z,14.52
2022-11-12T17:04:24.055Z,12.95
2022-11-12T17:06:50.445Z,14.05
2022-11-12T17:09:16.934Z,13.55
2022-11-12T17:11:43.289Z,15.70
2022-11-12T17:14:10.955Z,9.38
2022-11-12T17:16:37.342Z,10.40
2022-11-12T17:19:04.073Z,13.23
2022-11-12T17:21:30.518Z,13.02
2022-11-12T17:23:57.872Z,13.68
2022-11-12T17:26:24.441Z,20.70
2022-11-12T17:28:57.094Z,26.23
2022-11-12T17:31:25.848Z,26.42
2022-11-12T17:33:52.994Z,23.13
2022-11-12T17:36:21.784Z,26.02
2022-11-12T17:38:48.269Z,26.73
2022-11-12T17:41:14.862Z,23.13
2022-11-12T17:43:41.544Z,33.47
2022-11-12T17:46:09.497Z,31.65
2022-11-12T17:48:36.895Z,27.40
2022-11-12T17:51:08.737Z,34.35
2022-11-12T17:53:36.062Z,32.47
2022-11-12T17:56:02.744Z,50.17
2022-11-12T17:58:29.523Z,42.58
2022-11-12T18:00:57.034Z,43.85
2022-11-12T18:03:23.454Z,38.80
2022-11-12T18:05:59.981Z,61.42
2022-11-12T18:08:26.388Z,64.97
2022-11-12T18:10:52.938Z,59.15
2022-11-12T18:13:19.381Z,51.63
2022-11-12T18:15:45.855Z,51.42
2022-11-12T18:18:12.411Z,28.08
2022-11-12T18:20:39.404Z,23.95
2022-11-12T18:23:05.870Z,34.22
2022-11-12T18:25:32.261Z,34.75
2022-11-12T18:27:58.744Z,36.25
2022-11-12T18:30:25.174Z,46.22
2022-11-12T18:32:51.575Z,43.25
2022-11-12T18:35:17.980Z,43.40
2022-11-12T18:37:44.533Z,35.75
2022-11-12T18:40:11.307Z,38.13
2022-11-12T18:42:37.677Z,31.60
2022-11-12T18:45:04.295Z,29.83
2022-11-12T18:47:30.777Z,27.52
2022-11-12T18:49:57.142Z,31.05
2022-11-12T18:52:23.583Z,29.88
2022-11-12T18:54:50.020Z,33.95
2022-11-12T18:57:16.454Z,43.55
2022-11-12T18:59:42.908Z,38.10
2022-11-12T19:02:12.071Z,44.38
2022-11-12T19:04:44.044Z,39.05
2022-11-12T19:07:11.758Z,43.15
2022-11-12T19:09:38.229Z,40.28
2022-11-12T19:12:04.856Z,36.10
2022-11-12T19:14:31.234Z,36.70
2022-11-12T19:16:57.970Z,39.00
2022-11-12T19:19:24.335Z,40.22
2022-11-12T19:21:50.706Z,43.75
2022-11-12T19:24:17.164Z,41.00
2022-11-12T19:26:43.642Z,36.10
2022-11-12T19:29:10.059Z,36.78
2022-11-12T19:31:36.808Z,38.70
2022-11-12T19:34:03.230Z,39.65
2022-11-12T19:36:29.719Z,44.05
2022-11-12T19:38:57.418Z,43.85
2022-11-12T19:41:24.206Z,41.00
2022-11-12T19:43:51.390Z,34.53
2022-11-12T19:46:17.986Z,28.58
2022-11-12T19:48:44.644Z,33.00
2022-11-12T19:51:12.383Z,30.65
2022-11-12T19:53:44.204Z,36.35
2022-11-12T19:56:16.878Z,33.78
2022-11-12T19:58:48.138Z,37.25
2022-11-12T20:01:17.700Z,35.63
2022-11-12T20:03:44.469Z,36.90
2022-11-12T20:06:13.824Z,25.05
2022-11-12T20:08:40.648Z,22.48
2022-11-12T20:11:07.018Z,22.17
2022-11-12T20:13:33.385Z,24.80
2022-11-12T20:15:59.790Z,24.95
2022-11-12T20:18:26.955Z,38.33
2022-11-12T20:20:56.264Z,84.60
2022-11-12T20:23:23.713Z,60.03
2022-11-12T20:25:51.156Z,39.80
2022-11-12T20:28:18.095Z,43.78
2022-11-12T20:30:45.055Z,43.10
2022-11-12T20:33:13.423Z,42.90
2022-11-12T20:35:39.825Z,45.92
2022-11-12T20:38:06.469Z,44.85
2022-11-12T20:40:33.079Z,49.13
2022-11-12T20:42:59.477Z,59.35
2022-11-12T20:45:27.002Z,63.20
2022-11-12T20:47:54.994Z,48.92
2022-11-12T20:50:21.493Z,41.40
2022-11-12T20:52:48.067Z,41.10
2022-11-12T20:55:14.509Z,40.40
2022-11-12T20:57:40.902Z,39.97
2022-11-12T21:00:13.264Z,35.15
2022-11-12T21:02:40.419Z,35.00
2022-11-12T21:05:07.123Z,33.47
2022-11-12T21:07:33.663Z,35.75
2022-11-12T21:10:00.198Z,31.70
2022-11-12T21:12:26.583Z,27.23
2022-11-12T21:14:52.974Z,29.00
2022-11-12T21:17:19.734Z,30.60
2022-11-12T21:19:46.155Z,32.05
2022-11-12T21:22:14.718Z,27.58
2022-11-12T21:24:41.112Z,27.77
2022-11-12T21:27:07.500Z,28.67
2022-11-12T21:29:34.604Z,33.38
2022-11-12T21:32:01.014Z,33.30
2022-11-12T21:34:27.466Z,28.58
2022-11-12T21:36:53.827Z,34.78
2022-11-12T21:39:20.703Z,34.35
2022-11-12T21:41:47.075Z,36.83
2022-11-12T21:44:13.452Z,35.20
2022-11-12T21:46:40.379Z,33.28
2022-11-12T21:49:06.788Z,34.47
2022-11-12T21:51:33.512Z,31.67
2022-11-12T21:54:05.119Z,33.92
2022-11-12T21:56:33.265Z,33.78
2022-11-12T21:59:01.131Z,42.63
2022-11-12T22:01:29.430Z,39.33
2022-11-12T22:03:57.120Z,48.05
2022-11-12T22:06:25.523Z,55.97
2022-11-12T22:08:52.976Z,70.93
2022-11-12T22:11:19.816Z,68.82
2022-11-12T22:13:46.436Z,65.80
2022-11-12T22:16:19.520Z,64.20
2022-11-12T22:18:48.379Z,54.20
2022-11-12T22:21:17.282Z,55.72
2022-11-12T22:23:43.982Z,58.22
2022-11-12T22:26:15.129Z,59.13
2022-11-12T22:28:41.940Z,55.03
2022-11-12T22:31:11.687Z,51.05
2022-11-12T22:33:38.625Z,47.35
2022-11-12T22:36:13.281Z,39.35
2022-11-12T22:38:41.800Z,38.03
2022-11-12T22:41:10.917Z,40.38
2022-11-12T22:43:37.979Z,34.20
2022-11-12T22:46:09.898Z,37.42
2022-11-12T22:48:36.499Z,38.28
2022-11-12T22:51:05.302Z,40.28
2022-11-12T22:53:31.993Z,38.55
2022-11-12T22:56:05.807Z,47.78
2022-11-12T22:58:39.975Z,42.67
2022-11-12T23:01:08.913Z,51.72
2022-11-12T23:03:35.795Z,49.55
2022-11-12T23:06:04.812Z,52.50
2022-11-12T23:08:31.719Z,38.92
2022-11-12T23:11:02.538Z,41.65
2022-11-12T23:13:28.905Z,43.60
2022-11-12T23:15:55.311Z,36.72
2022-11-12T23:18:21.726Z,41.25
2022-11-12T23:20:48.102Z,36.28
2022-11-12T23:23:14.467Z,37.17
2022-11-12T23:25:40.928Z,36.85
2022-11-12T23:28:07.671Z,44.70
2022-11-12T23:30:35.308Z,38.30
2022-11-12T23:33:02.077Z,38.67
2022-11-12T23:35:29.831Z,36.58
2022-11-12T23:37:56.187Z,37.20
2022-11-12T23:40:24.292Z,36.10
2022-11-12T23:42:53.728Z,38.88
2022-11-12T23:45:20.099Z,37.38
2022-11-12T23:47:46.474Z,37.78
2022-11-12T23:50:12.911Z,36.47
2022-11-12T23:52:39.278Z,35.85
2022-11-12T23:55:05.779Z,33.63
2022-11-12T23:57:32.873Z,32.47
2022-11-12T23:59:59.253Z,82.88
